createdAt,value
2017-02-04T00:00:58.820Z,17.1
2017-02-04T00:02:08.975Z,17.1
2017-02-04T00:03:18.493Z,17.19
2017-02-04T00:04:28.786Z,17.19
2017-02-04T00:05:39.076Z,17.14
2017-02-04T00:06:49.366Z,17.16
2017-02-04T00:07:59.562Z,17.2
2017-02-04T00:09:09.850Z,17.19
2017-02-04T00:10:20.571Z,17.17
2017-02-04T00:11:30.464Z,17.16
2017-02-04T00:12:39.969Z,17.09
2017-02-04T00:13:50.967Z,17.1
2017-02-04T00:15:01.656Z,17.1
2017-02-04T00:16:11.972Z,17.12
2017-02-04T00:17:21.867Z,17.17
2017-02-04T00:18:32.556Z,17.19
2017-02-04T00:19:43.141Z,17.23
2017-02-04T00:20:52.635Z,17.16
2017-02-04T00:22:02.925Z,17.16
2017-02-04T00:23:12.807Z,17.2
2017-02-04T00:24:22.708Z,17.13
2017-02-04T00:25:33.698Z,17.1
2017-02-04T00:26:43.592Z,17.19
2017-02-04T00:27:53.103Z,17.22
2017-02-04T00:29:02.213Z,17.16
2017-02-04T00:30:12.495Z,17.17
2017-02-04T00:31:23.035Z,17.22
2017-02-04T00:32:33.371Z,17.2
2017-02-04T00:33:43.263Z,17.12
2017-02-04T00:34:53.166Z,17.19
2017-02-04T00:36:03.466Z,17.1
2017-02-04T00:37:14.408Z,17.13
2017-02-04T00:38:25.089Z,17.07
2017-02-04T00:39:35.385Z,17.04
2017-02-04T00:40:45.674Z,17.19
2017-02-04T00:41:55.975Z,17.09
2017-02-04T00:43:06.910Z,17.12
2017-02-04T00:44:16.023Z,17.22
2017-02-04T00:45:26.324Z,17.2
2017-02-04T00:46:36.628Z,17.1
2017-02-04T00:47:46.126Z,17.1
2017-02-04T00:48:56.719Z,17.2
2017-02-04T00:50:06.625Z,17.19
2017-02-04T00:51:16.923Z,17.14
2017-02-04T00:52:27.616Z,17.12
2017-02-04T00:53:37.121Z,17.14
2017-02-04T00:54:47.661Z,17.09
2017-02-04T00:55:57.964Z,17.14
2017-02-04T00:57:07.856Z,17.07
2017-02-04T00:58:17.761Z,17.09
2017-02-04T00:59:27.655Z,17.07
2017-02-04T01:00:37.092Z,17.12
2017-02-04T01:01:47.767Z,17.19
2017-02-04T01:02:58.067Z,17.16
2017-02-04T01:04:07.962Z,17.09
2017-02-04T01:05:17.860Z,17.19
2017-02-04T01:06:28.085Z,17.1
2017-02-04T01:07:37.976Z,17.07
2017-02-04T01:08:48.278Z,17.07
2017-02-04T01:09:58.967Z,17.07
2017-02-04T01:11:08.867Z,17.1
2017-02-04T01:12:19.024Z,17.1
2017-02-04T01:13:29.316Z,17.09
2017-02-04T01:14:39.613Z,17.14
2017-02-04T01:15:49.522Z,17.07
2017-02-04T01:16:59.428Z,17.12
2017-02-04T01:18:08.833Z,17.14
2017-02-04T01:19:19.114Z,17.17
2017-02-04T01:20:29.016Z,17.1
2017-02-04T01:21:38.523Z,17.2
2017-02-04T01:22:48.518Z,17.17
2017-02-04T01:23:59.052Z,17.12
2017-02-04T01:25:09.331Z,17.14
2017-02-04T01:26:19.615Z,17.13
2017-02-04T01:27:29.122Z,17.12
2017-02-04T01:28:38.229Z,17.12
2017-02-04T01:29:49.214Z,17.1
2017-02-04T01:30:59.498Z,17.19
2017-02-04T01:32:10.183Z,17.12
2017-02-04T01:33:20.467Z,17.14
2017-02-04T01:34:30.779Z,17.12
2017-02-04T01:35:40.917Z,17.13
2017-02-04T01:36:50.801Z,17.07
2017-02-04T01:38:00.363Z,17.13
2017-02-04T01:39:10.652Z,17.12
2017-02-04T01:40:20.940Z,17.13
2017-02-04T01:41:30.347Z,17.16
2017-02-04T01:42:40.241Z,16.99
2017-02-04T01:43:50.134Z,17.01
2017-02-04T01:45:00.821Z,17.09
2017-02-04T01:46:10.715Z,17.16
2017-02-04T01:47:20.866Z,17.2
2017-02-04T01:48:31.170Z,17.12
2017-02-04T01:49:41.466Z,17.04
2017-02-04T01:50:52.159Z,17.14
2017-02-04T01:52:02.453Z,17.14
2017-02-04T01:53:12.596Z,17.14
2017-02-04T01:54:22.891Z,17.09
2017-02-04T01:55:32.402Z,17.1
2017-02-04T01:56:42.688Z,17.1
2017-02-04T01:57:51.807Z,17.12
2017-02-04T01:59:01.950Z,17.09
2017-02-04T02:00:11.069Z,17.16
2017-02-04T02:01:21.360Z,17.1
2017-02-04T02:02:31.286Z,17.17
2017-02-04T02:03:40.802Z,17.07
2017-02-04T02:04:51.333Z,17.12
2017-02-04T02:06:00.837Z,17.12
2017-02-04T02:07:10.340Z,17.1
2017-02-04T02:08:20.237Z,16.99
2017-02-04T02:09:30.521Z,17.04
2017-02-04T02:10:41.054Z,17.09
2017-02-04T02:11:50.962Z,17.04
2017-02-04T02:13:00.861Z,17.13
2017-02-04T02:14:10.365Z,17.17
2017-02-04T02:15:20.654Z,17.09
2017-02-04T02:16:31.609Z,17.1
2017-02-04T02:17:41.501Z,17.05
2017-02-04T02:18:51.592Z,17.1
2017-02-04T02:20:01.488Z,17.2
2017-02-04T02:21:11.391Z,17.12
2017-02-04T02:22:21.546Z,17.17
2017-02-04T02:23:31.825Z,17.04
2017-02-04T02:24:42.212Z,17.07
2017-02-04T02:25:52.115Z,17.13
2017-02-04T02:27:02.425Z,17.13
2017-02-04T02:28:12.961Z,17.07
2017-02-04T02:29:22.857Z,17.02
2017-02-04T02:30:32.357Z,17.12
2017-02-04T02:31:41.862Z,17.1
2017-02-04T02:32:51.755Z,17.1
2017-02-04T02:34:01.958Z,17.12
2017-02-04T02:35:12.499Z,17.04
2017-02-04T02:36:22.001Z,17.17
2017-02-04T02:37:31.908Z,17.13
2017-02-04T02:38:42.589Z,17.09
2017-02-04T02:39:53.122Z,17.04
2017-02-04T02:41:03.025Z,17.07
2017-02-04T02:42:12.521Z,17.14
2017-02-04T02:43:22.416Z,17.13
2017-02-04T02:44:32.328Z,16.99
2017-02-04T02:45:41.674Z,17.16
2017-02-04T02:46:51.568Z,17.14
2017-02-04T02:48:02.243Z,17.13
2017-02-04T02:49:10.967Z,17.12
2017-02-04T02:50:20.965Z,17.07
2017-02-04T02:51:30.764Z,16.99
2017-02-04T02:52:40.659Z,16.98
2017-02-04T02:53:51.142Z,17.04
2017-02-04T02:55:00.639Z,16.98
2017-02-04T02:56:11.311Z,17.02
2017-02-04T02:57:21.071Z,17.12
2017-02-04T02:58:30.607Z,17.09
2017-02-04T02:59:40.891Z,17.1
2017-02-04T03:00:50.393Z,17.12
2017-02-04T03:02:00.294Z,17.01
2017-02-04T03:03:10.826Z,17.12
2017-02-04T03:04:20.333Z,17.05
2017-02-04T03:05:30.226Z,16.97
2017-02-04T03:06:40.115Z,17.01
2017-02-04T03:07:50.004Z,16.97
2017-02-04T03:09:00.144Z,17.09
2017-02-04T03:10:10.435Z,16.98
2017-02-04T03:11:20.767Z,16.97
2017-02-04T03:12:31.099Z,16.98
2017-02-04T03:13:41.381Z,16.97
2017-02-04T03:14:51.530Z,16.95
2017-02-04T03:16:02.233Z,16.98
2017-02-04T03:17:12.130Z,16.97
2017-02-04T03:18:21.623Z,16.92
2017-02-04T03:19:31.132Z,17.04
2017-02-04T03:20:41.280Z,17.04
2017-02-04T03:21:51.590Z,17.12
2017-02-04T03:23:01.479Z,17.09
2017-02-04T03:24:10.980Z,17.13
2017-02-04T03:25:21.654Z,16.95
2017-02-04T03:26:31.792Z,17.02
2017-02-04T03:27:41.679Z,17.01
2017-02-04T03:28:51.971Z,16.99
2017-02-04T03:30:02.256Z,17.05
2017-02-04T03:31:12.542Z,17.05
2017-02-04T03:32:22.678Z,16.98
2017-02-04T03:33:32.958Z,16.95
2017-02-04T03:34:43.241Z,17.04
2017-02-04T03:35:53.141Z,16.97
2017-02-04T03:37:03.038Z,16.99
2017-02-04T03:38:13.578Z,16.98
2017-02-04T03:39:23.468Z,16.97
2017-02-04T03:40:34.143Z,16.97
2017-02-04T03:41:44.030Z,16.99
2017-02-04T03:42:54.341Z,17.02
2017-02-04T03:44:04.871Z,17.02
2017-02-04T03:45:15.150Z,16.98
2017-02-04T03:46:25.045Z,16.98
2017-02-04T03:47:34.944Z,16.99
2017-02-04T03:48:44.855Z,16.99
2017-02-04T03:49:55.820Z,16.92
2017-02-04T03:51:05.712Z,17.02
2017-02-04T03:52:15.703Z,16.92
2017-02-04T03:53:26.033Z,17.01
2017-02-04T03:54:35.922Z,16.97
2017-02-04T03:55:45.281Z,16.99
2017-02-04T03:56:55.579Z,16.97
2017-02-04T03:58:04.685Z,16.95
2017-02-04T03:59:14.582Z,16.99
2017-02-04T04:00:24.081Z,16.98
2017-02-04T04:01:34.664Z,16.97
2017-02-04T04:02:45.351Z,16.99
2017-02-04T04:03:56.039Z,16.92
2017-02-04T04:05:05.933Z,16.97
2017-02-04T04:06:15.495Z,16.95
2017-02-04T04:07:26.035Z,17.05
2017-02-04T04:08:36.321Z,16.97
2017-02-04T04:09:46.209Z,16.94
2017-02-04T04:10:56.495Z,16.95
2017-02-04T04:12:06.776Z,16.97
2017-02-04T04:13:16.974Z,16.92
2017-02-04T04:14:27.270Z,16.94
2017-02-04T04:15:36.765Z,16.84
2017-02-04T04:16:46.660Z,16.97
2017-02-04T04:17:56.552Z,16.94
2017-02-04T04:19:06.691Z,16.97
2017-02-04T04:20:16.577Z,16.98
2017-02-04T04:21:26.466Z,16.98
2017-02-04T04:22:35.969Z,16.95
2017-02-04T04:23:45.867Z,16.91
2017-02-04T04:24:56.843Z,16.86
2017-02-04T04:26:07.136Z,16.87
2017-02-04T04:27:16.633Z,16.98
2017-02-04T04:28:26.517Z,17.01
2017-02-04T04:29:35.224Z,17.01
2017-02-04T04:30:45.377Z,16.97
2017-02-04T04:31:55.656Z,16.97
2017-02-04T04:33:05.541Z,16.98
2017-02-04T04:34:15.968Z,16.99
2017-02-04T04:35:26.259Z,16.99
2017-02-04T04:36:37.179Z,16.98
2017-02-04T04:37:46.677Z,16.99
2017-02-04T04:38:56.182Z,16.82
2017-02-04T04:40:06.083Z,16.97
2017-02-04T04:41:15.979Z,16.98
2017-02-04T04:42:25.381Z,16.94
2017-02-04T04:43:35.285Z,16.95
2017-02-04T04:44:45.966Z,16.97
2017-02-04T04:45:55.464Z,16.97
2017-02-04T04:47:05.751Z,16.97
2017-02-04T04:48:15.493Z,16.98
2017-02-04T04:49:25.385Z,16.92
2017-02-04T04:50:35.709Z,16.99
2017-02-04T04:51:45.603Z,16.97
2017-02-04T04:52:55.097Z,16.98
2017-02-04T04:54:05.243Z,16.98
2017-02-04T04:55:14.748Z,17.07
2017-02-04T04:56:24.640Z,16.97
2017-02-04T04:57:34.932Z,16.95
2017-02-04T04:58:45.224Z,16.95
2017-02-04T04:59:55.763Z,16.99
2017-02-04T05:01:06.441Z,16.97
2017-02-04T05:02:15.544Z,16.99
2017-02-04T05:03:25.444Z,16.98
2017-02-04T05:04:36.121Z,16.95
2017-02-04T05:05:46.654Z,16.98
2017-02-04T05:06:56.944Z,16.97
2017-02-04T05:08:07.223Z,16.94
2017-02-04T05:09:17.516Z,16.99
2017-02-04T05:10:27.803Z,16.98
2017-02-04T05:11:37.940Z,16.91
2017-02-04T05:12:48.228Z,16.89
2017-02-04T05:13:58.144Z,16.89
2017-02-04T05:15:08.429Z,16.98
2017-02-04T05:16:18.728Z,16.94
2017-02-04T05:17:28.861Z,16.97
2017-02-04T05:18:38.749Z,16.95
2017-02-04T05:19:48.643Z,16.97
2017-02-04T05:20:58.962Z,16.99
2017-02-04T05:22:09.642Z,16.91
2017-02-04T05:23:19.402Z,16.95
2017-02-04T05:24:29.690Z,17.01
2017-02-04T05:25:39.579Z,16.97
2017-02-04T05:26:49.076Z,16.99
2017-02-04T05:27:59.365Z,16.95
2017-02-04T05:29:09.109Z,16.99
2017-02-04T05:30:18.625Z,16.95
2017-02-04T05:31:28.522Z,16.97
2017-02-04T05:32:38.019Z,16.97
2017-02-04T05:33:48.291Z,16.92
2017-02-04T05:34:58.476Z,17.01
2017-02-04T05:36:08.380Z,17.04
2017-02-04T05:37:18.269Z,17.04
2017-02-04T05:38:28.553Z,17.02
2017-02-04T05:39:38.442Z,17.05
2017-02-04T05:40:48.974Z,16.98
2017-02-04T05:41:58.861Z,16.99
2017-02-04T05:43:08.759Z,16.98
2017-02-04T05:44:18.652Z,16.99
2017-02-04T05:45:28.550Z,16.97
2017-02-04T05:46:39.085Z,17.02
2017-02-04T05:47:48.580Z,16.99
2017-02-04T05:48:58.471Z,17.04
2017-02-04T05:50:08.764Z,16.99
2017-02-04T05:51:18.647Z,17.01
2017-02-04T05:52:28.828Z,17.1
2017-02-04T05:53:39.109Z,17.01
2017-02-04T05:54:48.996Z,17.02
2017-02-04T05:55:59.729Z,16.97
2017-02-04T05:57:10.018Z,16.99
2017-02-04T05:58:20.565Z,16.99
2017-02-04T05:59:31.247Z,16.95
2017-02-04T06:00:41.140Z,17.01
2017-02-04T06:01:51.855Z,17.04
2017-02-04T06:03:02.150Z,17.01
2017-02-04T06:04:13.072Z,17.07
2017-02-04T06:05:23.358Z,16.99
2017-02-04T06:06:33.654Z,16.98
2017-02-04T06:07:43.535Z,17.05
2017-02-04T06:08:52.649Z,17.07
2017-02-04T06:10:03.201Z,17.04
2017-02-04T06:11:12.802Z,17.1
2017-02-04T06:12:22.299Z,17.04
2017-02-04T06:13:32.971Z,17.07
2017-02-04T06:14:43.677Z,17.12
2017-02-04T06:15:54.209Z,17.13
2017-02-04T06:17:04.504Z,17.04
2017-02-04T06:18:13.617Z,17.1
2017-02-04T06:19:24.290Z,17.05
2017-02-04T06:20:34.974Z,17.1
2017-02-04T06:21:45.557Z,16.98
2017-02-04T06:22:56.239Z,17.07
2017-02-04T06:24:06.130Z,17.01
2017-02-04T06:25:16.020Z,16.99
2017-02-04T06:26:26.702Z,17.14
2017-02-04T06:27:37.682Z,17.09
2017-02-04T06:28:47.674Z,17.12
2017-02-04T06:29:57.952Z,17.07
2017-02-04T06:31:08.249Z,17.04
2017-02-04T06:32:18.528Z,17.05
2017-02-04T06:33:29.293Z,17.02
2017-02-04T06:34:39.586Z,17.02
2017-02-04T06:35:49.475Z,17.07
2017-02-04T06:37:00.161Z,17.1
2017-02-04T06:38:10.449Z,17.14
2017-02-04T06:39:20.205Z,17.05
2017-02-04T06:40:30.095Z,16.99
2017-02-04T06:41:40.392Z,17.1
2017-02-04T06:42:50.681Z,17.05
2017-02-04T06:44:01.361Z,17.09
2017-02-04T06:45:11.899Z,16.98
2017-02-04T06:46:22.191Z,16.99
2017-02-04T06:47:32.083Z,17.13
2017-02-04T06:48:42.372Z,17.02
2017-02-04T06:49:51.875Z,17.1
2017-02-04T06:51:02.017Z,17.04
2017-02-04T06:52:11.908Z,16.99
2017-02-04T06:53:22.591Z,17.05
2017-02-04T06:54:32.881Z,17.07
2017-02-04T06:55:43.155Z,17.09
2017-02-04T06:56:53.758Z,17.14
2017-02-04T06:58:03.795Z,17.05
2017-02-04T06:59:13.344Z,16.99
2017-02-04T07:00:24.022Z,17.07
2017-02-04T07:01:34.310Z,17.09
2017-02-04T07:02:44.091Z,17.09
2017-02-04T07:03:54.769Z,17.01
2017-02-04T07:05:05.436Z,17.1
2017-02-04T07:06:15.886Z,17.02
2017-02-04T07:07:26.191Z,17.16
2017-02-04T07:08:37.180Z,17.17
2017-02-04T07:09:47.069Z,17.16
2017-02-04T07:10:56.182Z,17.12
2017-02-04T07:12:06.468Z,17.05
2017-02-04T07:13:17.148Z,17.16
2017-02-04T07:14:26.903Z,17.17
2017-02-04T07:15:37.192Z,17.12
2017-02-04T07:16:47.880Z,17.1
2017-02-04T07:17:57.785Z,17.07
2017-02-04T07:19:08.077Z,17.12
2017-02-04T07:20:19.022Z,17.09
2017-02-04T07:21:28.906Z,17.12
2017-02-04T07:22:39.196Z,17.12
2017-02-04T07:23:49.511Z,17.07
2017-02-04T07:24:59.408Z,17.04
2017-02-04T07:26:10.341Z,17.02
2017-02-04T07:27:21.024Z,17.13
2017-02-04T07:28:31.702Z,17.12
2017-02-04T07:29:42.386Z,17.13
2017-02-04T07:30:52.672Z,17.1
2017-02-04T07:32:03.256Z,17.12
2017-02-04T07:33:12.764Z,17.14
2017-02-04T07:34:22.659Z,17.14
2017-02-04T07:35:32.938Z,17.07
2017-02-04T07:36:43.229Z,17.13
2017-02-04T07:37:53.774Z,17.13
2017-02-04T07:39:03.729Z,17.2
2017-02-04T07:40:13.781Z,17.12
2017-02-04T07:41:24.611Z,17.1
2017-02-04T07:42:34.899Z,17.1
2017-02-04T07:43:45.833Z,17.12
2017-02-04T07:44:56.127Z,17.07
2017-02-04T07:46:06.415Z,17.19
2017-02-04T07:47:16.724Z,17.16
2017-02-04T07:48:27.004Z,17.09
2017-02-04T07:49:37.148Z,17.1
2017-02-04T07:50:46.658Z,17.07
2017-02-04T07:51:57.333Z,17.12
2017-02-04T07:53:07.242Z,17.17
2017-02-04T07:54:16.751Z,17.17
2017-02-04T07:55:27.290Z,17.16
2017-02-04T07:56:37.973Z,17.05
2017-02-04T07:57:48.257Z,17.13
2017-02-04T07:58:58.150Z,17.12
2017-02-04T08:00:08.819Z,17.19
2017-02-04T08:01:18.972Z,17.1
2017-02-04T08:02:29.687Z,17.13
2017-02-04T08:03:39.575Z,17.16
2017-02-04T08:04:49.478Z,17.13
2017-02-04T08:06:00.165Z,17.1
2017-02-04T08:07:10.310Z,17.12
2017-02-04T08:08:20.239Z,17.1
2017-02-04T08:09:30.922Z,17.17
2017-02-04T08:10:41.609Z,17.14
2017-02-04T08:11:51.896Z,17.12
2017-02-04T08:13:02.427Z,17.12
2017-02-04T08:14:12.722Z,17.2
2017-02-04T08:15:23.007Z,17.16
2017-02-04T08:16:33.288Z,17.16
2017-02-04T08:17:43.579Z,17.16
2017-02-04T08:18:54.177Z,17.14
2017-02-04T08:20:04.074Z,17.19
2017-02-04T08:21:13.963Z,17.14
2017-02-04T08:22:23.468Z,17.14
2017-02-04T08:23:34.160Z,17.24
2017-02-04T08:24:44.308Z,17.16
2017-02-04T08:25:54.609Z,17.2
2017-02-04T08:27:04.893Z,17.17
2017-02-04T08:28:14.805Z,17.14
2017-02-04T08:29:25.490Z,17.19
2017-02-04T08:30:35.641Z,17.22
2017-02-04T08:31:46.328Z,17.16
2017-02-04T08:32:56.618Z,17.22
2017-02-04T08:34:07.295Z,17.27
2017-02-04T08:35:17.576Z,17.22
2017-02-04T08:36:28.113Z,17.2
2017-02-04T08:37:38.403Z,17.19
2017-02-04T08:38:48.689Z,17.14
2017-02-04T08:39:59.031Z,17.16
2017-02-04T08:41:09.723Z,17.22
2017-02-04T08:42:19.920Z,17.19
2017-02-04T08:43:29.424Z,17.16
2017-02-04T08:44:39.701Z,17.19
2017-02-04T08:45:48.816Z,17.24
2017-02-04T08:46:58.717Z,17.17
2017-02-04T08:48:09.306Z,17.22
2017-02-04T08:49:19.598Z,17.19
2017-02-04T08:50:29.093Z,17.27
2017-02-04T08:51:39.382Z,17.2
2017-02-04T08:52:49.818Z,17.22
2017-02-04T08:53:59.963Z,17.2
2017-02-04T08:55:10.645Z,17.22
2017-02-04T08:56:20.158Z,17.27
2017-02-04T08:57:30.050Z,17.23
2017-02-04T08:58:40.749Z,17.17
2017-02-04T08:59:50.893Z,17.23
2017-02-04T09:01:01.180Z,17.28
2017-02-04T09:02:11.078Z,17.3
2017-02-04T09:03:21.761Z,17.24
2017-02-04T09:04:32.061Z,17.24
2017-02-04T09:05:42.263Z,17.28
2017-02-04T09:06:52.164Z,17.28
2017-02-04T09:08:02.064Z,17.32
2017-02-04T09:09:12.350Z,17.35
2017-02-04T09:10:22.639Z,17.32
2017-02-04T09:11:33.235Z,17.34
2017-02-04T09:12:43.924Z,17.27
2017-02-04T09:13:53.840Z,17.35
2017-02-04T09:15:04.156Z,17.24
2017-02-04T09:16:14.846Z,17.31
2017-02-04T09:17:25.388Z,17.28
2017-02-04T09:18:36.065Z,17.31
2017-02-04T09:19:46.353Z,17.34
2017-02-04T09:20:56.255Z,17.3
2017-02-04T09:22:06.951Z,17.31
2017-02-04T09:23:17.092Z,17.37
2017-02-04T09:24:27.378Z,17.37
2017-02-04T09:25:37.667Z,17.35
2017-02-04T09:26:48.362Z,17.35
2017-02-04T09:27:58.662Z,17.37
2017-02-04T09:29:08.804Z,17.39
2017-02-04T09:30:19.098Z,17.35
2017-02-04T09:31:28.998Z,17.39
2017-02-04T09:32:38.931Z,17.32
2017-02-04T09:33:48.934Z,17.27
2017-02-04T09:34:59.473Z,17.37
2017-02-04T09:36:10.163Z,17.28
2017-02-04T09:37:19.678Z,17.41
2017-02-04T09:38:29.961Z,17.32
2017-02-04T09:39:39.470Z,17.32
2017-02-04T09:40:50.042Z,17.39
2017-02-04T09:42:00.728Z,17.39
2017-02-04T09:43:11.420Z,17.32
2017-02-04T09:44:21.307Z,17.41
2017-02-04T09:45:31.614Z,17.42
2017-02-04T09:46:42.549Z,17.39
2017-02-04T09:47:53.233Z,17.34
2017-02-04T09:49:03.522Z,17.42
2017-02-04T09:50:12.677Z,17.38
2017-02-04T09:51:22.576Z,17.37
2017-02-04T09:52:33.325Z,17.42
2017-02-04T09:53:43.632Z,17.49
2017-02-04T09:54:54.329Z,17.37
2017-02-04T09:56:05.012Z,17.32
2017-02-04T09:57:15.707Z,17.34
2017-02-04T09:58:25.529Z,17.38
2017-02-04T09:59:35.816Z,17.42
2017-02-04T10:00:46.320Z,17.41
2017-02-04T10:01:56.638Z,17.49
2017-02-04T10:03:05.752Z,17.35
2017-02-04T10:04:16.685Z,17.39
2017-02-04T10:05:26.976Z,17.38
2017-02-04T10:06:37.660Z,17.41
2017-02-04T10:07:47.945Z,17.38
2017-02-04T10:08:57.462Z,17.37
2017-02-04T10:10:08.004Z,17.41
2017-02-04T10:11:18.300Z,17.35
2017-02-04T10:12:27.802Z,17.39
2017-02-04T10:13:37.313Z,17.38
2017-02-04T10:14:48.044Z,17.49
2017-02-04T10:15:58.647Z,17.37
2017-02-04T10:17:08.143Z,17.46
2017-02-04T10:18:18.451Z,17.52
2017-02-04T10:19:28.342Z,17.52
2017-02-04T10:20:39.022Z,17.32
2017-02-04T10:21:49.173Z,17.37
2017-02-04T10:22:59.851Z,17.47
2017-02-04T10:24:10.549Z,17.49
2017-02-04T10:25:20.846Z,17.49
2017-02-04T10:26:30.738Z,17.42
2017-02-04T10:27:40.142Z,17.49
2017-02-04T10:28:50.452Z,17.49
2017-02-04T10:30:00.348Z,17.46
2017-02-04T10:31:10.267Z,17.49
2017-02-04T10:32:20.563Z,17.44
2017-02-04T10:33:31.115Z,17.53
2017-02-04T10:34:41.794Z,17.5
2017-02-04T10:35:52.497Z,17.47
2017-02-04T10:37:02.391Z,17.53
2017-02-04T10:38:12.704Z,17.47
2017-02-04T10:39:23.707Z,17.49
2017-02-04T10:40:34.006Z,17.53
2017-02-04T10:41:44.736Z,17.52
2017-02-04T10:42:55.538Z,17.46
2017-02-04T10:44:05.841Z,17.47
2017-02-04T10:45:16.851Z,17.49
2017-02-04T10:46:26.760Z,17.49
2017-02-04T10:47:37.070Z,17.52
2017-02-04T10:48:47.007Z,17.52
2017-02-04T10:49:57.715Z,17.52
2017-02-04T10:51:08.659Z,17.54
2017-02-04T10:52:18.958Z,17.53
2017-02-04T10:53:29.807Z,17.54
2017-02-04T10:54:39.696Z,17.53
2017-02-04T10:55:50.375Z,17.5
2017-02-04T10:57:00.916Z,17.5
2017-02-04T10:58:10.461Z,17.52
2017-02-04T10:59:20.768Z,17.47
2017-02-04T11:00:31.056Z,17.52
2017-02-04T11:01:41.750Z,17.52
2017-02-04T11:02:52.711Z,17.56
2017-02-04T11:04:03.013Z,17.5
2017-02-04T11:05:13.297Z,17.49
2017-02-04T11:06:23.594Z,17.59
2017-02-04T11:07:33.883Z,17.5
2017-02-04T11:08:44.474Z,17.52
2017-02-04T11:09:54.773Z,17.46
2017-02-04T11:11:04.284Z,17.57
2017-02-04T11:12:14.964Z,17.5
2017-02-04T11:13:25.265Z,17.5
2017-02-04T11:14:35.858Z,17.54
2017-02-04T11:15:46.557Z,17.59
2017-02-04T11:16:56.069Z,17.6
2017-02-04T11:18:06.376Z,17.65
2017-02-04T11:19:15.892Z,17.65
2017-02-04T11:20:26.485Z,17.56
2017-02-04T11:21:36.389Z,17.65
2017-02-04T11:22:46.744Z,17.53
2017-02-04T11:23:57.438Z,17.54
2017-02-04T11:25:07.343Z,17.59
2017-02-04T11:26:17.894Z,17.63
2017-02-04T11:27:28.199Z,17.56
2017-02-04T11:28:38.091Z,17.53
2017-02-04T11:29:48.002Z,17.59
2017-02-04T11:30:58.685Z,17.66
2017-02-04T11:32:08.834Z,17.63
2017-02-04T11:33:18.758Z,17.63
2017-02-04T11:34:28.652Z,17.52
2017-02-04T11:35:39.349Z,17.65
2017-02-04T11:36:49.250Z,17.57
2017-02-04T11:37:59.788Z,17.52
2017-02-04T11:39:09.691Z,17.52
2017-02-04T11:40:19.990Z,17.59
2017-02-04T11:41:30.694Z,17.68
2017-02-04T11:42:41.377Z,17.66
2017-02-04T11:43:52.322Z,17.66
2017-02-04T11:45:02.642Z,17.66
2017-02-04T11:46:12.547Z,17.68
2017-02-04T11:47:23.251Z,17.68
2017-02-04T11:48:33.148Z,17.69
2017-02-04T11:49:42.905Z,17.57
2017-02-04T11:50:52.424Z,17.69
2017-02-04T11:52:01.927Z,17.6
2017-02-04T11:53:12.228Z,17.63
2017-02-04T11:54:22.138Z,17.59
2017-02-04T11:55:33.074Z,17.59
2017-02-04T11:56:43.764Z,17.6
2017-02-04T11:57:53.679Z,17.57
2017-02-04T11:59:03.972Z,17.57
2017-02-04T12:00:14.283Z,17.69
2017-02-04T12:01:24.449Z,17.69
2017-02-04T12:02:34.367Z,17.6
2017-02-04T12:03:44.666Z,17.66
2017-02-04T12:04:55.367Z,17.63
2017-02-04T12:06:05.670Z,17.63
2017-02-04T12:07:16.215Z,17.66
2017-02-04T12:08:26.517Z,17.71
2017-02-04T12:09:36.821Z,17.63
2017-02-04T12:10:46.731Z,17.59
2017-02-04T12:11:57.406Z,17.57
2017-02-04T12:13:08.342Z,17.63
2017-02-04T12:14:19.035Z,17.59
2017-02-04T12:15:29.333Z,17.6
2017-02-04T12:16:40.091Z,17.63
2017-02-04T12:17:50.387Z,17.57
2017-02-04T12:19:00.580Z,17.66
2017-02-04T12:20:10.488Z,17.65
2017-02-04T12:21:20.391Z,17.6
2017-02-04T12:22:30.316Z,17.6
2017-02-04T12:23:40.652Z,17.66
2017-02-04T12:24:51.605Z,17.69
2017-02-04T12:26:02.299Z,17.53
2017-02-04T12:27:11.809Z,17.59
2017-02-04T12:28:22.120Z,17.69
2017-02-04T12:29:32.016Z,17.63
2017-02-04T12:30:42.962Z,17.56
2017-02-04T12:31:53.268Z,17.6
2017-02-04T12:33:03.616Z,17.66
2017-02-04T12:34:14.299Z,17.65
2017-02-04T12:35:24.193Z,17.6
2017-02-04T12:36:35.141Z,17.63
2017-02-04T12:37:44.662Z,17.65
2017-02-04T12:38:54.948Z,17.6
2017-02-04T12:40:05.249Z,17.65
2017-02-04T12:41:15.167Z,17.66
2017-02-04T12:42:25.330Z,17.68
2017-02-04T12:43:34.853Z,17.66
2017-02-04T12:44:44.387Z,17.71
2017-02-04T12:45:53.901Z,17.66
2017-02-04T12:47:03.796Z,17.66
2017-02-04T12:48:19.466Z,17.71
2017-02-04T12:49:29.768Z,17.71
2017-02-04T12:50:40.080Z,17.65
2017-02-04T12:51:50.018Z,17.68
2017-02-04T12:53:00.755Z,17.69
2017-02-04T12:54:11.334Z,17.63
2017-02-04T12:55:22.032Z,17.63
2017-02-04T12:56:32.743Z,17.66
2017-02-04T12:57:43.489Z,17.63
2017-02-04T12:58:53.820Z,17.68
2017-02-04T13:00:04.493Z,17.71
2017-02-04T13:01:14.418Z,17.66
2017-02-04T13:02:24.755Z,17.65
2017-02-04T13:03:35.100Z,17.63
2017-02-04T13:04:45.811Z,17.66
2017-02-04T13:05:56.812Z,17.75
2017-02-04T13:07:06.745Z,17.6
2017-02-04T13:08:17.712Z,17.71
2017-02-04T13:09:28.447Z,17.66
2017-02-04T13:10:39.171Z,17.65
2017-02-04T13:11:49.732Z,17.71
2017-02-04T13:13:00.456Z,17.68
2017-02-04T13:14:10.792Z,17.68
2017-02-04T13:15:21.663Z,17.68
2017-02-04T13:16:32.376Z,17.68
2017-02-04T13:17:42.550Z,17.69
2017-02-04T13:18:52.860Z,17.71
2017-02-04T13:20:02.372Z,17.72
2017-02-04T13:21:12.681Z,17.71
2017-02-04T13:22:22.613Z,17.68
2017-02-04T13:23:33.633Z,17.68
2017-02-04T13:24:44.356Z,17.65
2017-02-04T13:25:55.070Z,17.72
2017-02-04T13:27:04.209Z,17.71
2017-02-04T13:28:14.517Z,17.71
2017-02-04T13:29:24.767Z,17.68
2017-02-04T13:30:35.064Z,17.69
2017-02-04T13:31:45.417Z,17.68
2017-02-04T13:32:56.112Z,17.69
2017-02-04T13:34:06.836Z,17.66
2017-02-04T13:35:17.050Z,17.63
2017-02-04T13:36:27.742Z,17.68
2017-02-04T13:37:38.057Z,17.63
2017-02-04T13:38:47.706Z,17.68
2017-02-04T13:39:58.426Z,17.65
2017-02-04T13:41:09.003Z,17.68
2017-02-04T13:42:19.726Z,17.56
2017-02-04T13:43:30.052Z,17.73
2017-02-04T13:44:40.373Z,17.71
2017-02-04T13:45:50.699Z,17.69
2017-02-04T13:47:01.679Z,17.71
2017-02-04T13:48:12.014Z,17.68
2017-02-04T13:49:21.942Z,17.57
2017-02-04T13:50:32.268Z,17.59
2017-02-04T13:51:42.619Z,17.6
2017-02-04T13:52:53.609Z,17.65
2017-02-04T13:54:03.537Z,17.63
2017-02-04T13:55:13.875Z,17.66
2017-02-04T13:56:24.203Z,17.66
2017-02-04T13:57:34.546Z,17.69
2017-02-04T13:58:44.399Z,17.65
2017-02-04T13:59:55.232Z,17.54
2017-02-04T14:01:05.952Z,17.57
2017-02-04T14:02:16.672Z,17.66
2017-02-04T14:03:27.409Z,17.63
2017-02-04T14:04:38.404Z,17.6
2017-02-04T14:05:49.133Z,17.68
2017-02-04T14:06:59.088Z,17.65
2017-02-04T14:08:09.463Z,17.73
2017-02-04T14:09:20.200Z,17.65
2017-02-04T14:10:30.784Z,17.69
2017-02-04T14:11:41.519Z,17.6
2017-02-04T14:12:51.456Z,17.6
2017-02-04T14:14:01.786Z,17.57
2017-02-04T14:15:12.100Z,17.66
2017-02-04T14:16:22.721Z,17.72
2017-02-04T14:17:33.443Z,17.68
2017-02-04T14:18:43.753Z,17.68
2017-02-04T14:19:54.069Z,17.66
2017-02-04T14:21:04.379Z,17.69
2017-02-04T14:22:15.031Z,17.63
2017-02-04T14:23:25.331Z,17.65
2017-02-04T14:24:35.658Z,17.63
2017-02-04T14:25:45.179Z,17.6
2017-02-04T14:26:55.093Z,17.57
2017-02-04T14:28:06.123Z,17.63
2017-02-04T14:29:16.846Z,17.65
2017-02-04T14:30:27.572Z,17.56
2017-02-04T14:31:37.903Z,17.6
2017-02-04T14:32:47.875Z,17.57
2017-02-04T14:33:57.703Z,17.54
2017-02-04T14:35:08.419Z,17.59
2017-02-04T14:36:19.138Z,17.52
2017-02-04T14:37:29.476Z,17.54
2017-02-04T14:38:40.186Z,17.68
2017-02-04T14:39:50.359Z,17.57
2017-02-04T14:41:01.080Z,17.53
2017-02-04T14:42:11.840Z,17.42
2017-02-04T14:43:22.551Z,17.49
2017-02-04T14:44:32.475Z,17.49
2017-02-04T14:45:43.456Z,17.5
2017-02-04T14:46:54.183Z,17.56
2017-02-04T14:48:04.506Z,17.49
2017-02-04T14:49:14.843Z,17.57
2017-02-04T14:50:24.772Z,17.52
2017-02-04T14:51:35.227Z,17.47
2017-02-04T14:52:45.941Z,17.54
2017-02-04T14:53:55.851Z,17.54
2017-02-04T14:55:06.150Z,17.47
2017-02-04T14:56:16.055Z,17.47
2017-02-04T14:57:26.650Z,17.46
2017-02-04T14:58:36.945Z,17.46
2017-02-04T14:59:47.632Z,17.49
2017-02-04T15:00:57.945Z,17.52
2017-02-04T15:02:07.868Z,17.52
2017-02-04T15:03:18.014Z,17.5
2017-02-04T15:04:28.715Z,17.46
2017-02-04T15:05:38.622Z,17.47
2017-02-04T15:06:48.963Z,17.41
2017-02-04T15:07:59.668Z,17.38